Time;durP1;ratioP1;P1;durP2;ratioP2;P2;SDS_P1;SDS_P2;PMS_P1;PMS_P2;Temp;Humidity;BMP_temperature;BMP_pressure;BME280_temperature;BME280_humidity;BME280_pressure;Samples;Min_cycle;Max_cycle;Signal;HPM_P1;HPM_P2
2023/07/12 00:01:27;;;;;;;1.43;0.90;;;23.60;96.70;;;;;;5026563;28;20486;-83
2023/07/12 00:04:03;;;;;;;1.50;0.90;;;23.50;96.50;;;;;;5025541;28;20459;-83
2023/07/12 00:06:36;;;;;;;1.50;0.90;;;23.50;96.90;;;;;;5020495;28;20982;-82
2023/07/12 00:09:03;;;;;;;1.47;0.90;;;23.60;96.00;;;;;;5025443;28;20483;-82
2023/07/12 00:11:30;;;;;;;1.47;0.90;;;23.60;96.20;;;;;;5025736;28;20485;-82
2023/07/12 00:13:57;;;;;;;1.53;1.00;;;23.60;95.80;;;;;;5028229;28;20490;-83
2023/07/12 00:16:26;;;;;;;1.50;0.90;;;23.60;95.30;;;;;;5028734;28;20456;-84
2023/07/12 00:18:54;;;;;;;1.43;0.90;;;23.60;94.90;;;;;;5028025;28;20463;-83
2023/07/12 00:21:23;;;;;;;1.40;1.00;;;23.70;95.20;;;;;;5027546;28;20481;-82
2023/07/12 00:23:53;;;;;;;1.43;0.90;;;23.70;94.90;;;;;;5032346;28;20459;-82
2023/07/12 00:26:23;;;;;;;1.50;0.90;;;23.70;94.50;;;;;;5028918;28;20485;-83
2023/07/12 00:28:51;;;;;;;1.43;0.90;;;23.70;94.60;;;;;;5031889;28;20459;-82
2023/07/12 00:31:18;;;;;;;1.43;0.90;;;23.70;94.60;;;;;;5025295;28;20478;-82
2023/07/12 00:33:45;;;;;;;1.40;0.90;;;23.70;94.40;;;;;;5031987;28;20629;-82
2023/07/12 00:36:14;;;;;;;1.47;0.90;;;23.70;94.80;;;;;;5027807;28;20455;-82
2023/07/12 00:38:44;;;;;;;1.47;0.90;;;23.70;94.60;;;;;;5025503;28;20455;-82
2023/07/12 00:41:27;;;;;;;1.50;0.90;;;23.70;95.50;;;;;;5023972;28;20463;-82
2023/07/12 00:44:00;;;;;;;1.43;0.90;;;23.70;94.70;;;;;;5028414;28;20830;-83
2023/07/12 00:46:32;;;;;;;1.47;0.90;;;23.70;94.40;;;;;;5028471;28;20456;-82
2023/07/12 00:48:59;;;;;;;1.50;0.90;;;23.70;94.90;;;;;;5030581;28;21518;-81
2023/07/12 00:51:36;;;;;;;1.43;0.90;;;23.70;94.90;;;;;;5028146;28;20483;-82
2023/07/12 00:54:11;;;;;;;1.43;0.90;;;23.70;95.30;;;;;;5030236;28;20486;-82
2023/07/12 00:56:39;;;;;;;1.43;0.90;;;23.70;94.60;;;;;;5030558;28;20493;-82
2023/07/12 00:59:11;;;;;;;1.47;0.83;;;23.70;95.10;;;;;;5031202;28;20531;-81
2023/07/12 01:01:39;;;;;;;1.50;0.90;;;23.60;95.70;;;;;;5027168;28;20618;-81
2023/07/12 01:04:07;;;;;;;1.50;0.90;;;23.60;95.50;;;;;;5028907;28;20463;-81
2023/07/12 01:06:34;;;;;;;1.50;0.90;;;23.60;96.20;;;;;;5027450;28;20471;-81
2023/07/12 01:09:06;;;;;;;1.43;0.90;;;23.50;96.90;;;;;;5031258;28;20722;-83
2023/07/12 01:11:33;;;;;;;1.43;0.90;;;23.50;98.20;;;;;;5031368;28;20479;-80
2023/07/12 01:14:01;;;;;;;1.47;0.90;;;23.40;98.20;;;;;;5029824;28;20969;-81
2023/07/12 01:16:30;;;;;;;1.50;0.90;;;23.40;98.20;;;;;;5028743;28;20483;-80
2023/07/12 01:18:56;;;;;;;1.50;0.80;;;23.30;98.20;;;;;;5028555;28;20459;-80
2023/07/12 01:21:27;;;;;;;1.50;0.90;;;23.10;98.20;;;;;;5031423;28;20479;-81
2023/07/12 01:23:54;;;;;;;1.50;1.00;;;23.00;98.20;;;;;;5034247;28;20458;-80
2023/07/12 01:26:25;;;;;;;1.50;0.90;;;22.90;98.20;;;;;;5030826;28;20469;-80
2023/07/12 01:28:55;;;;;;;1.50;0.90;;;22.80;98.20;;;;;;5030456;28;20487;-79
2023/07/12 01:31:24;;;;;;;1.50;0.90;;;22.70;98.20;;;;;;5024666;28;20537;-80
2023/07/12 01:33:50;;;;;;;1.47;0.87;;;22.70;98.20;;;;;;5024886;28;21033;-79
2023/07/12 01:36:18;;;;;;;1.50;0.90;;;22.60;98.20;;;;;;5021766;28;20462;-79
2023/07/12 01:38:46;;;;;;;1.60;1.47;;;22.60;98.20;;;;;;5027929;28;20458;-80
2023/07/12 01:41:13;;;;;;;1.47;0.90;;;22.50;98.20;;;;;;5027078;28;20579;-80
2023/07/12 01:43:40;;;;;;;1.50;0.90;;;22.50;98.20;;;;;;5029329;28;20464;-79
2023/07/12 01:46:07;;;;;;;1.43;0.90;;;22.50;98.20;;;;;;5026613;28;20562;-79
2023/07/12 01:48:34;;;;;;;1.50;0.90;;;22.40;98.20;;;;;;5025899;28;20484;-80
2023/07/12 01:51:01;;;;;;;1.50;0.90;;;22.40;98.20;;;;;;5030057;28;20980;-79
2023/07/12 01:53:29;;;;;;;1.47;0.90;;;22.40;98.20;;;;;;5016401;28;20774;-80
2023/07/12 01:55:59;;;;;;;1.47;0.90;;;22.30;98.20;;;;;;5028236;28;20467;-79
2023/07/12 01:58:25;;;;;;;1.50;0.90;;;22.30;98.20;;;;;;5026902;28;20460;-78
2023/07/12 02:00:53;;;;;;;1.47;0.90;;;22.20;98.20;;;;;;5035076;28;20485;-79
2023/07/12 02:03:20;;;;;;;1.50;0.90;;;22.20;98.20;;;;;;5033887;28;20775;-77
2023/07/12 02:05:47;;;;;;;1.43;0.90;;;22.20;98.20;;;;;;5030785;28;20467;-79
2023/07/12 02:08:14;;;;;;;1.50;0.90;;;22.10;98.20;;;;;;5031111;28;20495;-78
2023/07/12 02:10:42;;;;;;;2.83;1.27;;;22.10;98.20;;;;;;5030144;28;20502;-80
2023/07/12 02:13:10;;;;;;;1.50;0.90;;;22.10;98.20;;;;;;5030884;28;20483;-79
2023/07/12 02:15:37;;;;;;;1.47;0.90;;;22.10;98.20;;;;;;5027650;28;20467;-77
2023/07/12 02:18:04;;;;;;;1.47;0.90;;;22.10;98.20;;;;;;5028654;28;20451;-79
2023/07/12 02:20:31;;;;;;;1.50;0.90;;;22.10;98.20;;;;;;5031635;28;20534;-79
2023/07/12 02:22:58;;;;;;;1.47;0.90;;;22.00;98.20;;;;;;5031382;28;20486;-79
2023/07/12 02:25:25;;;;;;;1.50;0.90;;;22.00;98.20;;;;;;5029403;28;20461;-79
2023/07/12 02:27:52;;;;;;;3.30;3.00;;;22.00;98.20;;;;;;5030996;28;20486;-80
2023/07/12 02:30:22;;;;;;;1.47;0.90;;;22.00;98.20;;;;;;5027922;28;20467;-79
2023/07/12 02:32:49;;;;;;;1.50;0.90;;;22.00;98.20;;;;;;5029332;28;20840;-79
2023/07/12 02:35:17;;;;;;;1.50;0.90;;;22.00;98.20;;;;;;5025874;28;20604;-80
2023/07/12 02:37:44;;;;;;;1.47;0.90;;;21.90;98.20;;;;;;5026825;28;20901;-80
2023/07/12 02:40:12;;;;;;;1.50;0.93;;;21.90;98.20;;;;;;5023658;28;20469;-79
2023/07/12 02:42:40;;;;;;;1.50;0.90;;;21.90;98.20;;;;;;5026473;28;21122;-77
2023/07/12 02:45:08;;;;;;;1.50;0.90;;;21.90;98.20;;;;;;5027592;28;20466;-79
2023/07/12 02:47:37;;;;;;;1.50;0.90;;;21.90;98.20;;;;;;5024918;28;20488;-79
2023/07/12 02:50:05;;;;;;;1.47;0.90;;;21.90;98.20;;;;;;5026449;28;20473;-80
2023/07/12 02:52:32;;;;;;;1.50;1.00;;;21.90;98.20;;;;;;5029190;28;20483;-79
2023/07/12 02:54:59;;;;;;;1.50;0.90;;;21.80;98.20;;;;;;5026709;28;20463;-78
2023/07/12 02:57:26;;;;;;;1.50;1.00;;;21.70;98.20;;;;;;5022199;28;20463;-78
2023/07/12 02:59:53;;;;;;;1.50;0.90;;;21.60;98.20;;;;;;5022985;28;20459;-79
2023/07/12 03:02:20;;;;;;;1.47;0.90;;;21.50;98.20;;;;;;5023955;28;20475;-79
2023/07/12 03:04:48;;;;;;;1.50;0.90;;;21.50;98.20;;;;;;5026560;28;20632;-79
2023/07/12 03:07:15;;;;;;;1.50;0.90;;;21.30;98.20;;;;;;5026787;28;20469;-80
2023/07/12 03:09:42;;;;;;;1.50;0.90;;;21.30;98.20;;;;;;5021879;28;20471;-79
2023/07/12 03:12:08;;;;;;;1.50;0.90;;;21.20;98.20;;;;;;5024943;28;20872;-80
2023/07/12 03:14:36;;;;;;;1.50;0.90;;;21.10;98.20;;;;;;5024502;28;20475;-82
2023/07/12 03:17:05;;;;;;;1.50;0.90;;;21.00;98.20;;;;;;5026910;28;20459;-78
2023/07/12 03:19:33;;;;;;;1.50;0.90;;;20.90;98.20;;;;;;5023499;28;20559;-80
2023/07/12 03:22:02;;;;;;;1.50;0.90;;;20.80;98.20;;;;;;5025321;28;20554;-79
2023/07/12 03:24:29;;;;;;;1.47;0.90;;;20.70;98.20;;;;;;5025238;28;20477;-80
2023/07/12 03:26:56;;;;;;;1.47;0.90;;;20.70;98.20;;;;;;5025582;28;20455;-80
2023/07/12 03:29:23;;;;;;;1.47;0.90;;;20.60;98.20;;;;;;5025586;28;20483;-80
2023/07/12 03:31:50;;;;;;;1.47;0.90;;;20.50;98.20;;;;;;5026145;28;20502;-80
2023/07/12 03:34:16;;;;;;;1.50;0.97;;;20.50;98.20;;;;;;5026177;28;20854;-81
2023/07/12 03:36:43;;;;;;;1.50;0.90;;;20.50;98.20;;;;;;5025728;28;20463;-78
2023/07/12 03:39:11;;;;;;;1.50;0.90;;;20.40;98.20;;;;;;5024929;28;20976;-78
2023/07/12 03:41:38;;;;;;;1.50;0.90;;;20.40;98.20;;;;;;5023764;28;20908;-78
2023/07/12 03:44:05;;;;;;;1.50;0.90;;;20.40;98.20;;;;;;5019858;28;20467;-79
2023/07/12 03:46:31;;;;;;;1.50;0.93;;;20.30;98.20;;;;;;5022456;28;20459;-79
2023/07/12 03:48:58;;;;;;;1.43;0.90;;;20.30;98.20;;;;;;5026216;28;20517;-79
2023/07/12 03:51:25;;;;;;;1.47;0.90;;;20.30;98.20;;;;;;5025241;28;20497;-79
2023/07/12 03:53:53;;;;;;;1.50;0.90;;;20.40;98.20;;;;;;5018308;28;20471;-78
2023/07/12 03:56:21;;;;;;;1.50;0.90;;;20.40;98.20;;;;;;5023421;28;20483;-79
2023/07/12 03:58:49;;;;;;;1.50;1.00;;;20.40;98.20;;;;;;5026518;28;20462;-79
2023/07/12 04:01:16;;;;;;;1.50;0.90;;;20.40;98.20;;;;;;5024172;28;20502;-78
2023/07/12 04:03:42;;;;;;;1.50;0.97;;;20.40;98.20;;;;;;5024795;28;20464;-78
2023/07/12 04:06:12;;;;;;;1.47;0.90;;;20.40;98.20;;;;;;5024170;28;20621;-77
2023/07/12 04:08:39;;;;;;;1.50;0.90;;;20.40;98.20;;;;;;5030219;28;20503;-77
2023/07/12 04:11:06;;;;;;;1.50;0.90;;;20.40;98.20;;;;;;5024877;28;20558;-78
2023/07/12 04:13:35;;;;;;;1.43;0.90;;;20.40;98.20;;;;;;5026053;28;20467;-79
2023/07/12 04:16:02;;;;;;;1.50;1.00;;;20.40;98.20;;;;;;5026807;28;20642;-77
2023/07/12 04:18:30;;;;;;;1.47;0.90;;;20.30;98.20;;;;;;5027566;28;20471;-79
2023/07/12 04:21:03;;;;;;;1.50;0.90;;;20.40;98.20;;;;;;5027713;28;20860;-77
2023/07/12 04:23:30;;;;;;;1.47;0.90;;;20.30;98.20;;;;;;5023066;28;20462;-78
2023/07/12 04:26:00;;;;;;;1.47;0.90;;;20.30;98.20;;;;;;5020202;28;20950;-78
2023/07/12 04:28:27;;;;;;;1.47;0.90;;;20.30;98.20;;;;;;5025447;28;20981;-79
2023/07/12 04:30:56;;;;;;;1.47;0.90;;;20.30;98.20;;;;;;5024460;28;20463;-78
2023/07/12 04:33:23;;;;;;;1.50;1.00;;;20.30;98.20;;;;;;5019412;28;20785;-78
2023/07/12 04:35:49;;;;;;;1.43;0.90;;;20.30;98.20;;;;;;5024471;28;20475;-79
2023/07/12 04:38:16;;;;;;;1.50;0.90;;;20.20;98.20;;;;;;5024840;28;20482;-78
2023/07/12 04:40:43;;;;;;;1.43;0.90;;;20.20;98.20;;;;;;5024963;28;21147;-77
2023/07/12 04:43:10;;;;;;;1.47;0.90;;;20.20;98.20;;;;;;5024065;28;20510;-79
2023/07/12 04:45:36;;;;;;;1.47;0.90;;;20.20;98.20;;;;;;5023531;28;20478;-79
2023/07/12 04:48:05;;;;;;;1.50;0.90;;;20.20;98.20;;;;;;5024765;28;21025;-77
2023/07/12 04:50:34;;;;;;;1.43;0.90;;;20.20;98.20;;;;;;5029846;28;20495;-77
2023/07/12 04:53:01;;;;;;;1.47;0.90;;;20.10;98.20;;;;;;5022899;28;20512;-78
2023/07/12 04:55:28;;;;;;;1.50;0.90;;;20.20;98.20;;;;;;5021242;28;20460;-79
2023/07/12 04:57:55;;;;;;;1.40;0.90;;;20.10;98.20;;;;;;5025740;28;20534;-79
2023/07/12 05:00:23;;;;;;;1.40;0.90;;;20.20;98.20;;;;;;5028177;28;20800;-80
2023/07/12 05:02:50;;;;;;;1.43;0.90;;;20.20;98.20;;;;;;5025783;28;20522;-80
2023/07/12 05:05:20;;;;;;;1.47;0.90;;;20.20;98.20;;;;;;5026723;28;20740;-80
2023/07/12 05:07:48;;;;;;;1.50;0.90;;;20.20;98.20;;;;;;5024470;28;21008;-79
2023/07/12 05:10:15;;;;;;;1.43;0.90;;;20.20;98.20;;;;;;5028185;28;20483;-79
2023/07/12 05:12:42;;;;;;;1.47;0.90;;;20.20;98.20;;;;;;5029720;28;20487;-79
2023/07/12 05:15:10;;;;;;;1.47;0.90;;;20.30;98.20;;;;;;5033713;28;20464;-79
2023/07/12 05:17:40;;;;;;;1.50;0.90;;;20.20;98.20;;;;;;5034915;28;20562;-78
2023/07/12 05:20:09;;;;;;;1.47;0.90;;;20.30;98.20;;;;;;5029642;28;20451;-79
2023/07/12 05:22:37;;;;;;;1.50;0.90;;;20.30;98.20;;;;;;5030216;28;20566;-77
2023/07/12 05:25:04;;;;;;;1.50;0.90;;;20.30;98.20;;;;;;5021918;28;21166;-78
2023/07/12 05:33:05;;;;;;;1.47;0.90;;;20.30;98.20;;;;;;4626528;26;20982;-78
2023/07/12 05:35:32;;;;;;;1.50;0.90;;;20.30;98.20;;;;;;4998861;28;20545;-76
2023/07/12 05:38:00;;;;;;;1.50;0.90;;;20.30;98.20;;;;;;5006679;28;20465;-78
2023/07/12 05:40:29;;;;;;;1.47;0.90;;;20.30;98.20;;;;;;5008676;28;20461;-75
2023/07/12 05:42:57;;;;;;;1.43;0.90;;;20.20;98.20;;;;;;5001107;28;20493;-80
2023/07/12 05:45:24;;;;;;;1.50;0.90;;;20.20;98.20;;;;;;5003863;28;20461;-80
2023/07/12 05:47:51;;;;;;;1.47;0.90;;;20.20;98.20;;;;;;5005296;28;20464;-76
2023/07/12 05:50:20;;;;;;;1.50;0.90;;;20.20;98.20;;;;;;5004416;28;20894;-78
2023/07/12 05:52:47;;;;;;;1.47;0.90;;;20.20;98.20;;;;;;5006110;28;20484;-80
2023/07/12 05:55:18;;;;;;;1.47;0.90;;;20.10;98.20;;;;;;5003477;28;20838;-77
2023/07/12 05:57:45;;;;;;;1.50;1.00;;;20.10;98.20;;;;;;5003506;28;20468;-78
2023/07/12 06:00:13;;;;;;;1.50;0.90;;;20.10;98.20;;;;;;5006582;28;20826;-78
2023/07/12 06:02:40;;;;;;;1.50;1.13;;;20.10;98.20;;;;;;5006214;28;20480;-78
2023/07/12 06:05:07;;;;;;;1.50;0.90;;;20.00;98.20;;;;;;5001473;28;20468;-78
2023/07/12 06:07:35;;;;;;;1.43;0.90;;;20.00;98.20;;;;;;5001806;28;21059;-79
2023/07/12 06:10:01;;;;;;;1.43;0.90;;;20.00;98.20;;;;;;4998954;28;20983;-79
2023/07/12 06:12:30;;;;;;;1.47;0.90;;;19.90;98.20;;;;;;4999112;28;20489;-79
2023/07/12 06:14:56;;;;;;;1.47;0.90;;;20.00;98.20;;;;;;5004362;28;21171;-78
2023/07/12 06:17:23;;;;;;;1.50;1.00;;;20.20;98.20;;;;;;5003847;28;20549;-77
2023/07/12 06:19:50;;;;;;;1.50;0.90;;;20.40;98.20;;;;;;4998408;28;20452;-76
2023/07/12 06:22:17;;;;;;;1.47;0.90;;;20.70;98.20;;;;;;4998983;28;20787;-79
2023/07/12 06:24:44;;;;;;;1.50;0.90;;;21.00;98.20;;;;;;5000692;28;20464;-78
2023/07/12 06:27:10;;;;;;;1.60;1.10;;;21.40;98.20;;;;;;5005204;28;20470;-79
2023/07/12 06:29:39;;;;;;;1.50;0.90;;;21.70;98.20;;;;;;5003397;28;20494;-79
2023/07/12 06:32:06;;;;;;;1.50;0.90;;;21.80;98.20;;;;;;5002447;28;20480;-78
2023/07/12 06:34:33;;;;;;;1.50;0.90;;;22.10;98.20;;;;;;5003306;28;20480;-81
2023/07/12 06:37:00;;;;;;;1.50;0.90;;;22.30;98.20;;;;;;5001660;28;20460;-79
2023/07/12 06:39:26;;;;;;;1.47;0.90;;;22.50;98.20;;;;;;5000295;28;20457;-79
2023/07/12 06:41:53;;;;;;;1.50;0.90;;;22.60;98.20;;;;;;5004281;28;20482;-77
2023/07/12 06:44:20;;;;;;;1.50;0.90;;;22.80;98.20;;;;;;5000289;28;21066;-78
2023/07/12 06:46:48;;;;;;;1.47;0.90;;;23.00;98.20;;;;;;5004452;28;20488;-78
2023/07/12 06:49:15;;;;;;;1.50;0.80;;;23.20;97.60;;;;;;5003751;28;20485;-80
2023/07/12 06:51:46;;;;;;;1.50;0.90;;;23.40;96.40;;;;;;5001600;28;20487;-79
2023/07/12 06:54:12;;;;;;;1.47;0.90;;;23.50;96.50;;;;;;5001514;28;20469;-79
2023/07/12 06:56:40;;;;;;;1.50;0.90;;;23.60;96.70;;;;;;5002735;28;20468;-80
2023/07/12 06:59:07;;;;;;;1.50;0.90;;;23.70;95.20;;;;;;5004266;28;20958;-79
2023/07/12 07:01:33;;;;;;;1.50;0.80;;;23.80;94.90;;;;;;5000083;28;20494;-78
2023/07/12 07:04:03;;;;;;;1.50;0.90;;;23.80;94.20;;;;;;5019755;28;20504;-83
2023/07/12 07:06:30;;;;;;;1.50;0.90;;;23.90;94.20;;;;;;5000756;28;20723;-80
2023/07/12 07:08:56;;;;;;;1.50;0.90;;;24.10;92.70;;;;;;5008720;28;20520;-83
2023/07/12 07:11:23;;;;;;;1.43;0.90;;;24.10;92.10;;;;;;4997547;28;20483;-80
2023/07/12 07:13:50;;;;;;;1.50;0.87;;;24.20;91.50;;;;;;5015137;28;20496;-76
2023/07/12 07:16:17;;;;;;;1.50;1.00;;;24.20;90.90;;;;;;4996609;28;21011;-79
2023/07/12 07:18:44;;;;;;;1.50;0.90;;;24.30;90.40;;;;;;5012577;28;20463;-78
2023/07/12 07:21:13;;;;;;;1.50;0.90;;;24.30;89.60;;;;;;4995292;28;20932;-79
2023/07/12 07:23:39;;;;;;;1.50;0.90;;;24.30;88.80;;;;;;5012926;28;20519;-80
2023/07/12 07:26:08;;;;;;;1.50;0.90;;;24.40;89.30;;;;;;4995782;28;20895;-80
2023/07/12 07:28:35;;;;;;;1.47;0.90;;;24.50;89.40;;;;;;5015014;28;20518;-82
2023/07/12 07:31:02;;;;;;;1.47;0.90;;;24.50;89.40;;;;;;4994086;28;20476;-78
2023/07/12 07:33:29;;;;;;;1.43;0.90;;;24.50;88.40;;;;;;5019640;28;20474;-79
2023/07/12 07:35:56;;;;;;;1.43;0.90;;;24.60;87.30;;;;;;4996570;28;20468;-78
2023/07/12 07:38:27;;;;;;;1.43;0.80;;;24.70;87.00;;;;;;5014297;28;20458;-80
2023/07/12 07:40:56;;;;;;;1.50;0.90;;;24.70;85.80;;;;;;4995477;28;20966;-82
2023/07/12 07:43:23;;;;;;;1.47;0.90;;;24.80;85.10;;;;;;5015670;28;20949;-81
2023/07/12 07:45:50;;;;;;;1.50;0.80;;;24.80;84.90;;;;;;4997813;28;20460;-80
2023/07/12 07:48:16;;;;;;;1.50;0.90;;;24.80;85.10;;;;;;5020800;28;20484;-80
2023/07/12 07:50:43;;;;;;;1.50;0.90;;;24.90;84.50;;;;;;4995176;28;20531;-80
2023/07/12 07:53:11;;;;;;;1.50;1.00;;;25.00;83.90;;;;;;4986006;28;20978;-78
2023/07/12 07:55:42;;;;;;;1.50;0.90;;;25.20;84.20;;;;;;4997797;28;20488;-81
2023/07/12 07:58:09;;;;;;;1.47;0.90;;;25.40;82.80;;;;;;5007765;28;20905;-80
2023/07/12 08:00:37;;;;;;;1.43;0.90;;;25.50;81.40;;;;;;5003902;28;20767;-82
2023/07/12 08:03:04;;;;;;;1.50;0.90;;;25.50;81.60;;;;;;5009609;28;20476;-79
2023/07/12 08:05:31;;;;;;;1.50;0.90;;;25.50;82.20;;;;;;5001459;28;20465;-79
2023/07/12 08:08:01;;;;;;;1.47;0.90;;;25.40;81.60;;;;;;5008163;28;20480;-79
2023/07/12 08:10:28;;;;;;;1.50;0.80;;;25.30;81.90;;;;;;5002115;28;20956;-79
2023/07/12 08:12:57;;;;;;;1.50;0.80;;;25.30;81.60;;;;;;5008499;28;20498;-81
2023/07/12 08:15:25;;;;;;;1.40;0.80;;;25.40;82.10;;;;;;5003869;28;20460;-79
2023/07/12 08:17:52;;;;;;;1.50;0.90;;;25.30;81.30;;;;;;5013791;28;20476;-84
2023/07/12 08:20:19;;;;;;;1.40;0.90;;;25.30;81.10;;;;;;5002110;28;20473;-83
2023/07/12 08:22:46;;;;;;;1.50;0.90;;;25.20;82.10;;;;;;5008206;28;20513;-78
2023/07/12 08:25:14;;;;;;;1.50;0.90;;;25.40;82.60;;;;;;5002894;28;20464;-82
2023/07/12 08:27:42;;;;;;;1.50;1.00;;;25.50;82.30;;;;;;5009151;28;20497;-79
2023/07/12 08:30:11;;;;;;;1.50;0.90;;;25.40;82.20;;;;;;4995592;28;21034;-79
2023/07/12 08:32:38;;;;;;;1.50;0.80;;;25.50;82.30;;;;;;5001818;28;20486;-79
2023/07/12 08:35:06;;;;;;;1.47;0.90;;;25.50;82.30;;;;;;5000477;28;20819;-80
2023/07/12 08:37:33;;;;;;;1.50;0.90;;;25.60;82.00;;;;;;5005201;28;20554;-79
2023/07/12 08:40:00;;;;;;;1.50;0.90;;;25.80;81.00;;;;;;5003192;28;20467;-81
2023/07/12 08:42:29;;;;;;;1.43;0.87;;;26.00;80.20;;;;;;5007153;28;20577;-82
2023/07/12 08:45:01;;;;;;;1.47;0.80;;;26.20;79.30;;;;;;5010348;28;20471;-83
2023/07/12 08:47:41;;;;;;;1.50;0.80;;;26.20;79.30;;;;;;5009191;28;20849;-80
2023/07/12 08:50:13;;;;;;;1.43;0.80;;;26.10;77.10;;;;;;5007920;28;20479;-82
2023/07/12 08:52:41;;;;;;;1.47;0.80;;;26.00;77.20;;;;;;5014229;28;21001;-82
2023/07/12 08:55:13;;;;;;;1.43;0.90;;;26.10;78.80;;;;;;5014152;28;20826;-79
2023/07/12 08:57:41;;;;;;;1.43;0.90;;;26.30;78.90;;;;;;5012820;28;20494;-81
2023/07/12 09:00:14;;;;;;;1.40;0.80;;;26.40;77.90;;;;;;5011010;28;20804;-84
2023/07/12 09:02:51;;;;;;;1.50;0.80;;;26.50;76.80;;;;;;5015822;28;20496;-82
2023/07/12 09:05:28;;;;;;;1.50;0.90;;;26.80;76.20;;;;;;5014010;28;20495;-82
2023/07/12 09:08:17;;;;;;;1.50;0.80;;;26.90;75.80;;;;;;5019543;28;20518;-81
2023/07/12 09:10:48;;;;;;;1.50;0.90;;;27.00;75.30;;;;;;5008386;28;20549;-80
2023/07/12 09:13:16;;;;;;;1.70;1.10;;;27.10;75.70;;;;;;5007957;28;20768;-79
2023/07/12 09:15:47;;;;;;;1.50;0.80;;;27.10;75.60;;;;;;5014483;28;20459;-79
2023/07/12 09:18:27;;;;;;;1.47;0.80;;;27.20;75.60;;;;;;5003781;28;20532;-81
2023/07/12 09:20:54;;;;;;;1.47;0.80;;;27.30;75.30;;;;;;4992314;28;20471;-81
2023/07/12 09:23:21;;;;;;;1.40;0.80;;;27.20;76.10;;;;;;5013549;28;20513;-80
2023/07/12 09:25:54;;;;;;;1.50;0.80;;;27.00;76.00;;;;;;4988849;28;20464;-80
2023/07/12 09:28:21;;;;;;;1.43;0.90;;;26.80;76.90;;;;;;5012994;28;20462;-78
2023/07/12 09:30:51;;;;;;;1.47;0.80;;;26.80;77.10;;;;;;4991350;28;21073;-79
2023/07/12 09:33:20;;;;;;;1.50;0.87;;;27.10;77.50;;;;;;5016210;28;20551;-80
2023/07/12 09:35:49;;;;;;;1.50;0.80;;;27.20;75.30;;;;;;4998014;28;20543;-81
2023/07/12 09:38:18;;;;;;;1.47;0.87;;;27.20;75.20;;;;;;5018091;28;20832;-81
2023/07/12 09:40:47;;;;;;;1.43;0.80;;;27.50;75.30;;;;;;5003541;28;20828;-80
2023/07/12 09:43:17;;;;;;;1.50;0.90;;;27.70;74.10;;;;;;4992546;28;20468;-82
2023/07/12 09:45:54;;;;;;;1.50;0.80;;;27.90;75.00;;;;;;5007186;28;20463;-82
2023/07/12 09:48:29;;;;;;;1.50;0.80;;;28.10;73.00;;;;;;4997273;28;20483;-80
2023/07/12 09:51:14;;;;;;;1.47;0.80;;;28.10;72.90;;;;;;5005185;28;20687;-80
2023/07/12 09:53:46;;;;;;;1.47;0.80;;;28.00;73.10;;;;;;5028202;28;20463;-81
2023/07/12 09:56:23;;;;;;;1.43;0.80;;;28.00;72.10;;;;;;5006883;28;20528;-80
2023/07/12 09:58:58;;;;;;;1.50;0.80;;;28.10;73.10;;;;;;5005813;28;21179;-81
2023/07/12 10:01:37;;;;;;;1.43;0.80;;;28.20;72.90;;;;;;4995351;28;20474;-80
2023/07/12 10:04:21;;;;;;;1.47;0.80;;;28.10;72.40;;;;;;5013836;28;20876;-81
2023/07/12 10:06:51;;;;;;;1.50;0.80;;;28.00;72.10;;;;;;5000596;28;20503;-80
2023/07/12 10:09:26;;;;;;;1.50;0.90;;;27.70;72.40;;;;;;5008215;28;20467;-81
2023/07/12 10:12:02;;;;;;;1.50;0.80;;;27.40;73.40;;;;;;4998074;28;21011;-81
2023/07/12 10:14:34;;;;;;;1.47;0.80;;;27.30;74.40;;;;;;5009532;28;20460;-81
2023/07/12 10:17:02;;;;;;;1.43;0.80;;;27.30;73.70;;;;;;5009598;28;20481;-82
2023/07/12 10:19:33;;;;;;;1.47;0.80;;;27.30;72.90;;;;;;5013390;28;20459;-81
2023/07/12 10:22:04;;;;;;;1.47;0.80;;;27.20;74.10;;;;;;5009844;28;20566;-84
2023/07/12 10:24:35;;;;;;;1.50;0.90;;;27.10;74.30;;;;;;5021532;28;20459;-80
2023/07/12 10:27:06;;;;;;;1.43;0.80;;;27.10;75.10;;;;;;5011383;28;21018;-83
2023/07/12 10:29:42;;;;;;;1.47;0.80;;;27.00;74.90;;;;;;5017527;28;20467;-80
2023/07/12 10:32:20;;;;;;;1.50;0.90;;;26.80;75.50;;;;;;5003705;28;20494;-81
2023/07/12 10:34:51;;;;;;;1.50;0.80;;;26.90;75.80;;;;;;4995043;28;20503;-79
2023/07/12 10:37:28;;;;;;;1.47;0.80;;;27.30;76.10;;;;;;5001757;28;20510;-80
2023/07/12 10:39:55;;;;;;;1.43;0.80;;;27.70;75.90;;;;;;5005988;28;20464;-80
2023/07/12 10:42:29;;;;;;;1.50;0.80;;;28.00;74.20;;;;;;5008518;28;20586;-83
2023/07/12 10:44:59;;;;;;;1.50;0.80;;;28.20;73.60;;;;;;5006433;28;20514;-81
2023/07/12 10:47:30;;;;;;;1.47;0.80;;;28.50;72.10;;;;;;5004012;28;20482;-81
2023/07/12 10:50:01;;;;;;;1.47;0.80;;;28.80;72.50;;;;;;5011798;28;20460;-78
2023/07/12 10:52:32;;;;;;;1.47;0.80;;;28.90;69.60;;;;;;5011942;28;20604;-80
2023/07/12 10:55:18;;;;;;;1.47;0.80;;;29.00;70.40;;;;;;4998616;28;21659;-79
2023/07/12 10:57:47;;;;;;;1.50;0.80;;;29.10;69.70;;;;;;5011599;28;20474;-79
2023/07/12 11:00:30;;;;;;;1.50;0.90;;;29.30;69.70;;;;;;5002867;28;20552;-82
2023/07/12 11:03:17;;;;;;;1.47;0.80;;;29.40;68.60;;;;;;5012894;28;21063;-81
2023/07/12 11:05:47;;;;;;;1.40;0.80;;;29.20;68.50;;;;;;5008948;28;20470;-83
2023/07/12 11:08:38;;;;;;;1.50;0.80;;;28.80;69.20;;;;;;5004001;28;20479;-82
2023/07/12 11:11:35;;;;;;;1.43;0.80;;;28.30;69.30;;;;;;5003098;28;20490;-80
2023/07/12 11:14:44;;;;;;;1.47;0.90;;;28.00;71.00;;;;;;5028979;28;20462;-80
2023/07/12 11:17:17;;;;;;;1.47;0.90;;;28.00;70.30;;;;;;5010697;28;20543;-83
2023/07/12 11:19:48;;;;;;;1.47;0.83;;;28.60;71.00;;;;;;5012495;28;20521;-82
2023/07/12 11:22:18;;;;;;;1.43;0.80;;;28.60;68.60;;;;;;5010432;28;20871;-80
2023/07/12 11:25:01;;;;;;;1.47;0.80;;;28.70;69.60;;;;;;5010516;28;20458;-81
2023/07/12 11:27:40;;;;;;;1.47;0.80;;;29.00;69.00;;;;;;5007958;28;20483;-80
2023/07/12 11:30:23;;;;;;;1.43;0.80;;;29.00;68.90;;;;;;5006748;28;20981;-82
2023/07/12 11:32:53;;;;;;;1.47;0.80;;;29.20;69.20;;;;;;5015973;28;20488;-81
2023/07/12 11:35:31;;;;;;;1.43;0.80;;;29.10;68.30;;;;;;5017281;28;20476;-81
2023/07/12 11:37:58;;;;;;;1.47;0.80;;;28.80;69.40;;;;;;5011113;28;20475;-81
2023/07/12 11:40:31;;;;;;;1.47;0.80;;;28.90;68.90;;;;;;5009994;28;20537;-81
2023/07/12 11:43:16;;;;;;;1.47;0.80;;;29.20;68.10;;;;;;5015183;28;20519;-81
2023/07/12 11:45:43;;;;;;;1.50;0.80;;;29.40;67.30;;;;;;5012726;28;20478;-81
2023/07/12 11:48:10;;;;;;;1.47;0.80;;;29.40;66.00;;;;;;5018364;28;20850;-81
2023/07/12 11:50:40;;;;;;;1.47;0.80;;;29.10;66.40;;;;;;5010214;28;20511;-81
2023/07/12 11:53:07;;;;;;;1.40;0.80;;;28.70;67.50;;;;;;5011567;28;20566;-81
2023/07/12 11:55:36;;;;;;;1.43;0.80;;;28.40;69.40;;;;;;5013277;28;20464;-80
2023/07/12 11:58:15;;;;;;;1.47;0.80;;;28.50;69.70;;;;;;5018002;28;20900;-83
2023/07/12 12:00:42;;;;;;;1.43;0.80;;;28.70;68.40;;;;;;5015394;28;20502;-82
2023/07/12 12:03:11;;;;;;;1.47;0.80;;;28.50;67.50;;;;;;5019577;28;20494;-82
2023/07/12 12:05:39;;;;;;;1.40;0.90;;;28.60;67.90;;;;;;5016412;28;20495;-82
2023/07/12 12:08:06;;;;;;;1.43;0.80;;;28.90;66.70;;;;;;5014587;28;20482;-82
2023/07/12 12:10:38;;;;;;;1.40;0.80;;;29.20;66.70;;;;;;5013273;28;20961;-82
2023/07/12 12:13:16;;;;;;;1.47;0.80;;;29.20;65.50;;;;;;5000677;28;20498;-79
2023/07/12 12:15:47;;;;;;;1.47;0.80;;;29.00;65.50;;;;;;4997936;28;20467;-82
2023/07/12 12:18:17;;;;;;;1.47;0.80;;;29.10;65.30;;;;;;4992870;28;20483;-80
2023/07/12 12:20:53;;;;;;;1.70;1.37;;;29.00;64.60;;;;;;5002773;28;20453;-81
2023/07/12 12:23:27;;;;;;;1.43;0.80;;;28.90;64.80;;;;;;4996539;28;20476;-80
2023/07/12 12:26:00;;;;;;;1.50;0.80;;;28.50;64.90;;;;;;4996465;28;20459;-79
2023/07/12 12:28:31;;;;;;;1.43;0.80;;;28.20;66.30;;;;;;5012578;28;20472;-82
2023/07/12 12:30:59;;;;;;;1.47;0.80;;;28.50;66.80;;;;;;4992725;28;20492;-83
2023/07/12 12:36:21;;;;;;;1.50;0.80;;;29.20;65.90;;;;;;4997380;28;20722;-82
2023/07/12 12:38:57;;;;;;;1.43;0.80;;;29.10;66.60;;;;;;5014518;28;20529;-83
2023/07/12 12:41:36;;;;;;;1.43;0.80;;;28.70;67.10;;;;;;4995001;28;20846;-82
2023/07/12 12:44:10;;;;;;;1.43;0.80;;;28.60;67.10;;;;;;5011278;28;20926;-84
2023/07/12 12:46:38;;;;;;;1.40;0.80;;;28.30;67.30;;;;;;5003576;28;20483;-82
2023/07/12 12:49:18;;;;;;;1.40;0.80;;;28.20;67.20;;;;;;5009098;28;20464;-81
2023/07/12 12:51:47;;;;;;;1.47;0.80;;;28.10;68.20;;;;;;5010324;28;20580;-83
2023/07/12 12:54:14;;;;;;;1.50;0.93;;;28.00;67.70;;;;;;5016519;28;20467;-82
2023/07/12 12:56:42;;;;;;;1.43;0.80;;;27.90;68.30;;;;;;5005321;28;20951;-83
2023/07/12 12:59:11;;;;;;;1.47;0.87;;;28.10;67.60;;;;;;5013383;28;20456;-83
2023/07/12 13:01:38;;;;;;;1.47;0.90;;;28.40;66.50;;;;;;5003359;28;20553;-81
2023/07/12 13:04:07;;;;;;;1.47;0.80;;;28.90;64.50;;;;;;5012059;28;20467;-83
2023/07/12 13:06:34;;;;;;;1.47;0.80;;;29.10;65.00;;;;;;4999376;28;20579;-80
2023/07/12 13:09:01;;;;;;;1.47;0.80;;;29.40;64.50;;;;;;5009391;28;20471;-82